sensor_id;sensor_type;location;lat;lon;timestamp;pressure;altitude;pressure_sealevel;temperature;humidity
75604;BME280;64187;51.010;13.792;2023-03-03T00:04:31;100798.34;;;1.63;73.54
75604;BME280;64187;51.010;13.792;2023-03-03T00:09:30;100804.91;;;1.83;73.54
75604;BME280;64187;51.010;13.792;2023-03-03T00:14:31;100812.09;;;2.22;73.33
75604;BME280;64187;51.010;13.792;2023-03-03T00:19:37;100815.84;;;2.05;75.76
75604;BME280;64187;51.010;13.792;2023-03-03T00:24:36;100805.34;;;2.34;75.10
75604;BME280;64187;51.010;13.792;2023-03-03T00:29:39;100811.88;;;2.55;74.46
75604;BME280;64187;51.010;13.792;2023-03-03T00:34:40;100817.38;;;2.30;75.62
75604;BME280;64187;51.010;13.792;2023-03-03T00:39:40;100814.03;;;1.97;77.24
75604;BME280;64187;51.010;13.792;2023-03-03T00:49:42;100819.53;;;2.35;75.96
75604;BME280;64187;51.010;13.792;2023-03-03T00:54:41;100820.78;;;2.70;74.91
75604;BME280;64187;51.010;13.792;2023-03-03T00:59:40;100822.63;;;2.47;75.25
75604;BME280;64187;51.010;13.792;2023-03-03T01:04:41;100827.84;;;2.09;77.47
75604;BME280;64187;51.010;13.792;2023-03-03T01:09:41;100821.91;;;1.26;80.74
75604;BME280;64187;51.010;13.792;2023-03-03T01:14:40;100825.44;;;0.94;82.78
75604;BME280;64187;51.010;13.792;2023-03-03T01:19:39;100828.09;;;0.61;84.22
75604;BME280;64187;51.010;13.792;2023-03-03T01:24:38;100836.91;;;0.62;84.79
75604;BME280;64187;51.010;13.792;2023-03-03T01:29:37;100824.94;;;0.74;83.69
75604;BME280;64187;51.010;13.792;2023-03-03T01:34:36;100835.44;;;0.76;83.72
75604;BME280;64187;51.010;13.792;2023-03-03T01:39:35;100839.28;;;0.65;83.72
75604;BME280;64187;51.010;13.792;2023-03-03T01:44:34;100833.91;;;0.49;84.51
75604;BME280;64187;51.010;13.792;2023-03-03T01:49:35;100847.41;;;0.63;83.86
75604;BME280;64187;51.010;13.792;2023-03-03T01:54:44;100835.88;;;0.30;84.82
75604;BME280;64187;51.010;13.792;2023-03-03T01:59:47;100822.78;;;-0.06;87.15
75604;BME280;64187;51.010;13.792;2023-03-03T02:04:48;100815.97;;;1.00;82.12
75604;BME280;64187;51.010;13.792;2023-03-03T02:09:58;100822.28;;;0.74;82.39
75604;BME280;64187;51.010;13.792;2023-03-03T02:14:57;100823.59;;;0.62;83.10
75604;BME280;64187;51.010;13.792;2023-03-03T02:20:13;100815.13;;;1.07;81.02
75604;BME280;64187;51.010;13.792;2023-03-03T02:25:24;100811.44;;;1.25;80.06
75604;BME280;64187;51.010;13.792;2023-03-03T02:30:27;100830.09;;;1.17;79.47
75604;BME280;64187;51.010;13.792;2023-03-03T02:40:30;100815.06;;;0.17;81.72
75604;BME280;64187;51.010;13.792;2023-03-03T02:45:32;100818.56;;;0.34;81.76
75604;BME280;64187;51.010;13.792;2023-03-03T02:50:31;100818.06;;;0.23;82.90
75604;BME280;64187;51.010;13.792;2023-03-03T02:55:30;100832.63;;;0.02;83.38
75604;BME280;64187;51.010;13.792;2023-03-03T03:00:29;100813.03;;;0.19;83.20
75604;BME280;64187;51.010;13.792;2023-03-03T03:05:28;100825.72;;;0.26;81.91
75604;BME280;64187;51.010;13.792;2023-03-03T03:10:28;100840.00;;;0.25;83.72
75604;BME280;64187;51.010;13.792;2023-03-03T03:15:27;100830.28;;;1.07;79.80
75604;BME280;64187;51.010;13.792;2023-03-03T03:20:26;100831.25;;;1.47;77.41
75604;BME280;64187;51.010;13.792;2023-03-03T03:25:25;100834.41;;;1.42;77.26
75604;BME280;64187;51.010;13.792;2023-03-03T03:30:24;100832.84;;;1.56;76.48
75604;BME280;64187;51.010;13.792;2023-03-03T03:35:23;100838.81;;;1.75;75.88
75604;BME280;64187;51.010;13.792;2023-03-03T03:40:22;100837.25;;;1.88;75.10
75604;BME280;64187;51.010;13.792;2023-03-03T03:45:23;100833.72;;;2.04;74.93
75604;BME280;64187;51.010;13.792;2023-03-03T03:50:23;100821.66;;;1.69;76.34
75604;BME280;64187;51.010;13.792;2023-03-03T03:55:22;100825.28;;;1.12;77.42
75604;BME280;64187;51.010;13.792;2023-03-03T04:00:22;100844.09;;;0.61;79.62
75604;BME280;64187;51.010;13.792;2023-03-03T04:05:26;100858.56;;;0.59;80.07
75604;BME280;64187;51.010;13.792;2023-03-03T04:10:26;100848.75;;;1.49;76.27
75604;BME280;64187;51.010;13.792;2023-03-03T04:15:25;100855.28;;;0.98;77.71
75604;BME280;64187;51.010;13.792;2023-03-03T04:20:25;100871.59;;;1.03;78.13
75604;BME280;64187;51.010;13.792;2023-03-03T04:25:26;100860.56;;;0.57;79.39
75604;BME280;64187;51.010;13.792;2023-03-03T04:30:25;100868.44;;;1.07;78.71
75604;BME280;64187;51.010;13.792;2023-03-03T04:35:27;100869.00;;;1.75;75.25
75604;BME280;64187;51.010;13.792;2023-03-03T04:40:27;100873.25;;;2.01;74.83
75604;BME280;64187;51.010;13.792;2023-03-03T04:45:27;100871.09;;;1.96;73.99
75604;BME280;64187;51.010;13.792;2023-03-03T04:50:26;100881.41;;;1.60;75.34
75604;BME280;64187;51.010;13.792;2023-03-03T04:55:25;100884.53;;;1.80;74.99
75604;BME280;64187;51.010;13.792;2023-03-03T05:00:24;100881.66;;;1.89;74.35
75604;BME280;64187;51.010;13.792;2023-03-03T05:05:23;100884.13;;;1.27;75.66
75604;BME280;64187;51.010;13.792;2023-03-03T05:10:22;100883.28;;;1.02;76.97
75604;BME280;64187;51.010;13.792;2023-03-03T05:15:21;100888.56;;;1.51;75.99
75604;BME280;64187;51.010;13.792;2023-03-03T05:20:20;100882.50;;;1.73;74.88
75604;BME280;64187;51.010;13.792;2023-03-03T05:25:20;100881.69;;;1.73;74.73
75604;BME280;64187;51.010;13.792;2023-03-03T05:30:19;100865.69;;;7.85;86.89
75604;BME280;64187;51.010;13.792;2023-03-03T05:35:18;100871.25;;;10.12;58.09
75604;BME280;64187;51.010;13.792;2023-03-03T05:40:18;100875.31;;;9.84;52.14
75604;BME280;64187;51.010;13.792;2023-03-03T05:45:18;100860.91;;;8.58;62.60
75604;BME280;64187;51.010;13.792;2023-03-03T05:50:22;100885.22;;;8.52;57.98
75604;BME280;64187;51.010;13.792;2023-03-03T05:55:21;100876.94;;;6.27;57.42
75604;BME280;64187;51.010;13.792;2023-03-03T06:00:20;100886.13;;;3.14;68.14
75604;BME280;64187;51.010;13.792;2023-03-03T06:05:19;100885.13;;;1.98;72.72
75604;BME280;64187;51.010;13.792;2023-03-03T06:10:19;100890.44;;;1.42;75.96
75604;BME280;64187;51.010;13.792;2023-03-03T06:15:22;100882.09;;;0.96;78.43
75604;BME280;64187;51.010;13.792;2023-03-03T06:20:21;100882.41;;;1.01;78.42
75604;BME280;64187;51.010;13.792;2023-03-03T06:25:20;100877.25;;;0.92;78.80
75604;BME280;64187;51.010;13.792;2023-03-03T06:30:19;100882.50;;;0.42;81.09
75604;BME280;64187;51.010;13.792;2023-03-03T06:35:18;100885.41;;;1.06;79.56
75604;BME280;64187;51.010;13.792;2023-03-03T06:40:17;100891.72;;;1.46;78.43
75604;BME280;64187;51.010;13.792;2023-03-03T06:45:16;100907.19;;;1.76;77.24
75604;BME280;64187;51.010;13.792;2023-03-03T06:50:17;100909.09;;;2.14;75.28
75604;BME280;64187;51.010;13.792;2023-03-03T06:55:21;100911.47;;;2.41;74.36
75604;BME280;64187;51.010;13.792;2023-03-03T07:00:24;100909.97;;;2.46;73.91
75604;BME280;64187;51.010;13.792;2023-03-03T07:05:27;100921.97;;;2.50;73.88
75604;BME280;64187;51.010;13.792;2023-03-03T07:10:29;100926.50;;;2.73;72.56
75604;BME280;64187;51.010;13.792;2023-03-03T07:15:33;100939.78;;;2.58;72.75
75604;BME280;64187;51.010;13.792;2023-03-03T07:20:34;100930.78;;;2.59;73.20
75604;BME280;64187;51.010;13.792;2023-03-03T07:25:34;100929.88;;;2.44;73.66
75604;BME280;64187;51.010;13.792;2023-03-03T07:30:36;100928.59;;;1.59;76.44
75604;BME280;64187;51.010;13.792;2023-03-03T07:35:37;100947.03;;;2.02;75.83
75604;BME280;64187;51.010;13.792;2023-03-03T07:40:38;100951.25;;;1.39;78.42
75604;BME280;64187;51.010;13.792;2023-03-03T07:45:42;100955.41;;;1.82;77.31
75604;BME280;64187;51.010;13.792;2023-03-03T07:50:41;100960.06;;;2.44;74.54
75604;BME280;64187;51.010;13.792;2023-03-03T07:55:40;100957.41;;;2.75;73.11
75604;BME280;64187;51.010;13.792;2023-03-03T08:11:33;100960.44;;;1.61;77.50
75604;BME280;64187;51.010;13.792;2023-03-03T08:16:39;100957.41;;;2.44;74.98
75604;BME280;64187;51.010;13.792;2023-03-03T08:21:37;100966.41;;;2.51;74.22
75604;BME280;64187;51.010;13.792;2023-03-03T08:26:36;100960.91;;;2.45;74.51
75604;BME280;64187;51.010;13.792;2023-03-03T08:31:35;100949.88;;;2.48;73.79
75604;BME280;64187;51.010;13.792;2023-03-03T08:36:39;100952.44;;;2.33;74.49
75604;BME280;64187;51.010;13.792;2023-03-03T08:41:38;100963.25;;;1.26;78.54
75604;BME280;64187;51.010;13.792;2023-03-03T08:46:41;100972.94;;;1.60;78.60
75604;BME280;64187;51.010;13.792;2023-03-03T08:51:41;100973.00;;;2.24;75.20
75604;BME280;64187;51.010;13.792;2023-03-03T08:56:40;100965.91;;;2.48;74.12
75604;BME280;64187;51.010;13.792;2023-03-03T09:01:39;100962.84;;;2.59;73.98
75604;BME280;64187;51.010;13.792;2023-03-03T09:06:38;100962.75;;;2.44;74.96
75604;BME280;64187;51.010;13.792;2023-03-03T09:11:37;100971.34;;;2.63;73.59
75604;BME280;64187;51.010;13.792;2023-03-03T09:16:38;100976.09;;;2.84;73.26
75604;BME280;64187;51.010;13.792;2023-03-03T09:21:37;100983.59;;;2.88;73.20
75604;BME280;64187;51.010;13.792;2023-03-03T09:26:55;100982.00;;;3.02;72.71
75604;BME280;64187;51.010;13.792;2023-03-03T09:31:58;100983.09;;;2.85;72.73
75604;BME280;64187;51.010;13.792;2023-03-03T09:36:58;100993.56;;;2.94;72.35
75604;BME280;64187;51.010;13.792;2023-03-03T09:47:43;101004.44;;;2.93;72.63
75604;BME280;64187;51.010;13.792;2023-03-03T09:52:54;101011.63;;;2.92;72.77
75604;BME280;64187;51.010;13.792;2023-03-03T09:58:22;101022.94;;;3.02;71.84
75604;BME280;64187;51.010;13.792;2023-03-03T10:19:38;101022.00;;;2.56;74.27
75604;BME280;64187;51.010;13.792;2023-03-03T10:24:45;101029.56;;;2.84;71.80
75604;BME280;64187;51.010;13.792;2023-03-03T10:40:27;101025.25;;;2.27;73.99
75604;BME280;64187;51.010;13.792;2023-03-03T10:45:34;101018.47;;;1.83;75.17
75604;BME280;64187;51.010;13.792;2023-03-03T11:01:46;101023.63;;;1.36;76.30
75604;BME280;64187;51.010;13.792;2023-03-03T11:12:23;101019.66;;;2.61;70.91
75604;BME280;64187;51.010;13.792;2023-03-03T11:22:41;101017.56;;;2.32;71.72
75604;BME280;64187;51.010;13.792;2023-03-03T11:33:03;101009.44;;;2.09;73.16
75604;BME280;64187;51.010;13.792;2023-03-03T11:38:41;100999.16;;;2.85;70.59
75604;BME280;64187;51.010;13.792;2023-03-03T11:43:48;101003.63;;;3.15;69.12
75604;BME280;64187;51.010;13.792;2023-03-03T11:48:54;100999.25;;;2.60;71.48
75604;BME280;64187;51.010;13.792;2023-03-03T11:53:57;101005.41;;;3.00;70.73
75604;BME280;64187;51.010;13.792;2023-03-03T12:09:18;100988.75;;;2.50;71.27
75604;BME280;64187;51.010;13.792;2023-03-03T12:14:40;100989.28;;;2.54;71.75
75604;BME280;64187;51.010;13.792;2023-03-03T12:20:05;100991.72;;;2.24;73.19
75604;BME280;64187;51.010;13.792;2023-03-03T12:25:22;100983.94;;;1.65;73.76
75604;BME280;64187;51.010;13.792;2023-03-03T12:31:11;100979.34;;;2.31;72.10
75604;BME280;64187;51.010;13.792;2023-03-03T12:41:02;100975.59;;;2.80;70.85
75604;BME280;64187;51.010;13.792;2023-03-03T12:56:57;100946.28;;;2.24;70.90
75604;BME280;64187;51.010;13.792;2023-03-03T13:02:19;100948.22;;;1.91;72.24
75604;BME280;64187;51.010;13.792;2023-03-03T13:28:00;100946.47;;;2.62;70.10
75604;BME280;64187;51.010;13.792;2023-03-03T13:33:31;100953.38;;;2.09;70.09
75604;BME280;64187;51.010;13.792;2023-03-03T13:38:30;100936.78;;;2.13;70.04
75604;BME280;64187;51.010;13.792;2023-03-03T13:43:45;100935.38;;;2.42;69.22
75604;BME280;64187;51.010;13.792;2023-03-03T14:05:17;100934.06;;;2.69;68.15
75604;BME280;64187;51.010;13.792;2023-03-03T14:10:56;100921.53;;;2.30;69.93
75604;BME280;64187;51.010;13.792;2023-03-03T14:16:16;100909.88;;;2.23;70.39
75604;BME280;64187;51.010;13.792;2023-03-03T14:21:22;100913.84;;;2.35;69.06
75604;BME280;64187;51.010;13.792;2023-03-03T14:26:24;100907.81;;;2.73;68.72
75604;BME280;64187;51.010;13.792;2023-03-03T14:31:29;100904.03;;;2.28;69.99
75604;BME280;64187;51.010;13.792;2023-03-03T14:36:39;100901.50;;;2.34;69.49
75604;BME280;64187;51.010;13.792;2023-03-03T14:41:41;100901.34;;;2.28;69.09
75604;BME280;64187;51.010;13.792;2023-03-03T14:46:42;100895.91;;;2.21;70.58
75604;BME280;64187;51.010;13.792;2023-03-03T14:51:47;100890.59;;;2.05;69.92
75604;BME280;64187;51.010;13.792;2023-03-03T15:22:51;100891.28;;;2.38;69.04
75604;BME280;64187;51.010;13.792;2023-03-03T15:28:32;100880.28;;;1.93;70.28
75604;BME280;64187;51.010;13.792;2023-03-03T15:54:44;100879.72;;;1.67;71.12
75604;BME280;64187;51.010;13.792;2023-03-03T16:00:02;100878.66;;;1.76;70.82
75604;BME280;64187;51.010;13.792;2023-03-03T16:05:24;100888.88;;;1.72;70.89
75604;BME280;64187;51.010;13.792;2023-03-03T16:26:45;100884.88;;;1.77;70.83
75604;BME280;64187;51.010;13.792;2023-03-03T16:32:17;100888.03;;;1.72;70.63
75604;BME280;64187;51.010;13.792;2023-03-03T16:37:32;100895.41;;;1.45;71.65
75604;BME280;64187;51.010;13.792;2023-03-03T16:42:32;100890.91;;;1.21;72.98
75604;BME280;64187;51.010;13.792;2023-03-03T17:04:00;100888.88;;;1.72;71.14
75604;BME280;64187;51.010;13.792;2023-03-03T17:15:15;100890.28;;;1.27;73.08
75604;BME280;64187;51.010;13.792;2023-03-03T17:30:40;100897.44;;;1.35;73.07
75604;BME280;64187;51.010;13.792;2023-03-03T17:46:13;100908.44;;;3.06;65.16
75604;BME280;64187;51.010;13.792;2023-03-03T18:18:40;100919.75;;;1.34;73.55
75604;BME280;64187;51.010;13.792;2023-03-03T18:23:44;100910.66;;;1.92;72.11
75604;BME280;64187;51.010;13.792;2023-03-03T18:28:48;100908.13;;;2.47;69.54
75604;BME280;64187;51.010;13.792;2023-03-03T18:34:48;100911.25;;;2.58;69.56
75604;BME280;64187;51.010;13.792;2023-03-03T18:39:48;100908.13;;;2.07;70.75
75604;BME280;64187;51.010;13.792;2023-03-03T18:44:47;100910.59;;;2.56;70.09
75604;BME280;64187;51.010;13.792;2023-03-03T19:00:10;100918.91;;;2.62;70.06
75604;BME280;64187;51.010;13.792;2023-03-03T19:05:36;100904.81;;;2.68;69.91
75604;BME280;64187;51.010;13.792;2023-03-03T19:10:58;100912.63;;;2.77;70.11
75604;BME280;64187;51.010;13.792;2023-03-03T19:16:48;100913.59;;;3.08;68.54
75604;BME280;64187;51.010;13.792;2023-03-03T19:21:30;100914.16;;;2.72;70.02
75604;BME280;64187;51.010;13.792;2023-03-03T19:31:36;100907.88;;;2.88;70.61
75604;BME280;64187;51.010;13.792;2023-03-03T19:36:55;100903.25;;;3.05;69.33
75604;BME280;64187;51.010;13.792;2023-03-03T19:48:05;100898.00;;;2.34;71.70
75604;BME280;64187;51.010;13.792;2023-03-03T19:58:45;100902.59;;;2.48;71.26
75604;BME280;64187;51.010;13.792;2023-03-03T20:04:11;100908.25;;;2.85;70.56
75604;BME280;64187;51.010;13.792;2023-03-03T20:14:49;100916.84;;;2.72;70.54
75604;BME280;64187;51.010;13.792;2023-03-03T20:20:18;100907.25;;;2.54;70.82
75604;BME280;64187;51.010;13.792;2023-03-03T20:25:44;100900.50;;;2.90;70.18
75604;BME280;64187;51.010;13.792;2023-03-03T20:36:44;100890.69;;;3.05;70.13
75604;BME280;64187;51.010;13.792;2023-03-03T20:57:33;100885.88;;;3.00;69.85
75604;BME280;64187;51.010;13.792;2023-03-03T21:07:59;100868.91;;;2.93;70.36
75604;BME280;64187;51.010;13.792;2023-03-03T21:13:26;100868.13;;;2.62;71.58
75604;BME280;64187;51.010;13.792;2023-03-03T21:18:27;100866.41;;;2.37;72.30
75604;BME280;64187;51.010;13.792;2023-03-03T21:23:26;100862.53;;;2.17;73.13
75604;BME280;64187;51.010;13.792;2023-03-03T21:33:55;100849.41;;;2.62;71.94
75604;BME280;64187;51.010;13.792;2023-03-03T21:38:54;100851.19;;;2.69;71.18
75604;BME280;64187;51.010;13.792;2023-03-03T21:43:54;100851.66;;;2.50;72.19
75604;BME280;64187;51.010;13.792;2023-03-03T21:48:53;100846.19;;;2.12;73.60
75604;BME280;64187;51.010;13.792;2023-03-03T21:53:52;100841.50;;;2.14;73.58
75604;BME280;64187;51.010;13.792;2023-03-03T21:58:50;100846.81;;;2.22;72.98
75604;BME280;64187;51.010;13.792;2023-03-03T22:03:49;100845.88;;;2.07;74.43
75604;BME280;64187;51.010;13.792;2023-03-03T22:08:48;100833.03;;;4.94;92.40
75604;BME280;64187;51.010;13.792;2023-03-03T22:13:49;100838.44;;;7.21;58.33
75604;BME280;64187;51.010;13.792;2023-03-03T22:18:48;100831.88;;;3.43;68.46
75604;BME280;64187;51.010;13.792;2023-03-03T22:23:47;100836.22;;;2.60;71.91
75604;BME280;64187;51.010;13.792;2023-03-03T22:28:47;100827.22;;;2.30;73.36
75604;BME280;64187;51.010;13.792;2023-03-03T22:33:47;100834.59;;;2.28;73.44
75604;BME280;64187;51.010;13.792;2023-03-03T22:38:47;100826.47;;;1.82;75.09
75604;BME280;64187;51.010;13.792;2023-03-03T22:43:46;100821.66;;;1.69;75.46
75604;BME280;64187;51.010;13.792;2023-03-03T22:48:45;100817.94;;;1.86;75.06
75604;BME280;64187;51.010;13.792;2023-03-03T22:53:44;100814.88;;;1.98;74.64
75604;BME280;64187;51.010;13.792;2023-03-03T22:58:43;100811.63;;;1.79;75.09
75604;BME280;64187;51.010;13.792;2023-03-03T23:03:42;100804.06;;;2.22;73.60
75604;BME280;64187;51.010;13.792;2023-03-03T23:08:40;100808.56;;;1.90;74.25
75604;BME280;64187;51.010;13.792;2023-03-03T23:13:39;100802.50;;;2.05;74.33
75604;BME280;64187;51.010;13.792;2023-03-03T23:18:38;100797.28;;;2.11;73.98
75604;BME280;64187;51.010;13.792;2023-03-03T23:23:37;100790.78;;;2.06;74.02
75604;BME280;64187;51.010;13.792;2023-03-03T23:28:36;100777.25;;;1.84;74.96
75604;BME280;64187;51.010;13.792;2023-03-03T23:33:35;100778.31;;;1.98;74.83
75604;BME280;64187;51.010;13.792;2023-03-03T23:38:34;100777.28;;;2.39;72.97
75604;BME280;64187;51.010;13.792;2023-03-03T23:43:32;100773.78;;;2.07;73.90
75604;BME280;64187;51.010;13.792;2023-03-03T23:48:31;100764.44;;;2.34;72.99
75604;BME280;64187;51.010;13.792;2023-03-03T23:53:30;100772.97;;;2.52;71.92
75604;BME280;64187;51.010;13.792;2023-03-03T23:58:29;100762.81;;;2.25;72.75
